KASH/ASH METAR and TAF weather

Enter ICAO airport designator
Station Type Date Time Source
KASH METAR 2019/06/20 06:56 UTC NOAA

KASH 200656Z AUTO 00000KT 10SM BKN017 OVC034 19/19 A2976 RMK AO2 SLP085 T01940189


Station Type Date Time Source
KASH Decoded METAR 2019/06/20 06:56 UTC NOAA

Nashua, Boire Field Airport, NH, United States (KASH) 42-46-54N 071-30-53W
Jun 20, 2019 - 02:56 AM EDT / 2019.06.20 0656 UTC
Wind: Calm:0
Visibility: 10 mile(s):0
Sky conditions: overcast
Temperature: 66.9 F (19.4 C)
Dew Point: 66.0 F (18.9 C)
Relative Humidity: 96%
Pressure (altimeter): 29.76 in. Hg (1007 hPa)
ob: KASH 200656Z AUTO 00000KT 10SM BKN017 OVC034 19/19 A2976 RMK AO2 SLP085 T01940189
cycle: 7

Station Type Date Time Source
KASH TAF UTC NOAA

Error!

Example: see airport list